Time;durP1;ratioP1;P1;durP2;ratioP2;P2;SDS_P1;SDS_P2;PMS_P1;PMS_P2;Temp;Humidity;BMP_temperature;BMP_pressure;BME280_temperature;BME280_humidity;BME280_pressure;Samples;Min_cycle;Max_cycle;Signal;HPM_P1;HPM_P2
2023/10/01 00:01:00;;;;;;;11.65;4.35;;;15.30;99.90;;;;;;5026876;28;20311;-65
2023/10/01 00:03:27;;;;;;;10.90;4.30;;;15.10;99.90;;;;;;5062985;28;20199;-65
2023/10/01 00:05:54;;;;;;;10.27;4.30;;;15.00;99.90;;;;;;5052186;28;20196;-65
2023/10/01 00:08:23;;;;;;;6.88;4.60;;;15.00;99.90;;;;;;5062514;28;20987;-65
2023/10/01 00:10:49;;;;;;;12.32;3.83;;;15.00;99.90;;;;;;5060406;28;20200;-65
2023/10/01 00:13:16;;;;;;;6.50;3.83;;;15.00;99.90;;;;;;5060388;28;20244;-65
2023/10/01 00:15:43;;;;;;;11.82;4.32;;;15.00;99.90;;;;;;5053569;28;20201;-65
2023/10/01 00:18:10;;;;;;;8.48;4.43;;;15.00;99.90;;;;;;5026997;28;20227;-65
2023/10/01 00:20:37;;;;;;;10.00;4.70;;;15.00;99.90;;;;;;5055277;28;20215;-65
2023/10/01 00:23:04;;;;;;;13.15;5.05;;;15.20;99.90;;;;;;5066855;28;20216;-64
2023/10/01 00:25:35;;;;;;;9.70;5.18;;;14.90;99.90;;;;;;5059936;28;20192;-65
2023/10/01 00:28:04;;;;;;;12.18;5.40;;;14.90;99.90;;;;;;5061690;28;20218;-65
2023/10/01 00:30:32;;;;;;;12.93;5.10;;;14.90;99.90;;;;;;5052942;28;21054;-65
2023/10/01 00:32:59;;;;;;;10.52;5.53;;;14.90;99.90;;;;;;5023002;28;20239;-65
2023/10/01 00:35:26;;;;;;;9.45;4.80;;;14.90;99.90;;;;;;5062631;28;20192;-65
2023/10/01 00:37:53;;;;;;;9.60;5.57;;;14.90;99.90;;;;;;5053204;28;20209;-65
2023/10/01 00:40:20;;;;;;;10.00;5.65;;;14.90;99.90;;;;;;5062271;28;20204;-65
2023/10/01 00:42:49;;;;;;;8.50;5.03;;;14.90;99.90;;;;;;5064648;28;21171;-65
2023/10/01 00:45:16;;;;;;;12.90;5.22;;;14.90;99.90;;;;;;5046787;28;20200;-64
2023/10/01 00:47:44;;;;;;;6.63;4.93;;;14.80;99.90;;;;;;5066855;28;20661;-65
2023/10/01 00:50:13;;;;;;;8.13;5.03;;;14.90;99.90;;;;;;5013259;28;20219;-66
2023/10/01 00:52:41;;;;;;;13.70;4.68;;;13.80;99.90;;;;;;5047805;28;21197;-65
2023/10/01 00:55:13;;;;;;;11.57;4.88;;;14.90;99.90;;;;;;5064687;28;20310;-65
2023/10/01 00:57:41;;;;;;;12.73;5.20;;;15.00;99.90;;;;;;5058366;28;20567;-65
2023/10/01 01:00:15;;;;;;;9.10;4.72;;;14.90;99.90;;;;;;5063208;28;20192;-65
2023/10/01 01:02:56;;;;;;;9.35;4.43;;;14.90;99.90;;;;;;5048835;28;20221;-65
2023/10/01 01:05:23;;;;;;;9.68;4.63;;;15.10;99.90;;;;;;5013893;28;20260;-65
2023/10/01 01:07:50;;;;;;;12.55;5.43;;;14.80;99.90;;;;;;5047933;28;23720;-65
2023/10/01 01:10:18;;;;;;;9.25;4.65;;;14.80;99.90;;;;;;5057466;28;20196;-65
2023/10/01 01:12:47;;;;;;;7.82;4.70;;;14.80;99.90;;;;;;5061361;28;20228;-64
2023/10/01 01:15:15;;;;;;;9.52;4.65;;;14.80;99.90;;;;;;5057525;28;20211;-65
2023/10/01 01:17:43;;;;;;;10.60;4.68;;;14.80;99.90;;;;;;5048161;28;20208;-65
2023/10/01 01:20:13;;;;;;;6.38;4.30;;;14.80;99.90;;;;;;5025486;28;20274;-65
2023/10/01 01:22:48;;;;;;;9.88;5.07;;;14.80;99.90;;;;;;5040297;28;20215;-65
2023/10/01 01:25:20;;;;;;;8.18;5.43;;;14.90;99.90;;;;;;5062456;28;20578;-65
2023/10/01 01:27:47;;;;;;;8.60;5.03;;;14.90;99.90;;;;;;5061140;28;20219;-65
2023/10/01 01:30:18;;;;;;;7.13;4.97;;;14.80;99.90;;;;;;5059931;28;20207;-65
2023/10/01 01:32:47;;;;;;;11.38;4.78;;;14.80;99.90;;;;;;5047139;28;20240;-65
2023/10/01 01:35:14;;;;;;;10.57;5.25;;;14.80;99.90;;;;;;5021677;28;20344;-65
2023/10/01 01:37:47;;;;;;;7.40;4.60;;;14.80;99.90;;;;;;5046891;28;20883;-65
2023/10/01 01:40:24;;;;;;;9.80;5.13;;;14.70;99.90;;;;;;5046827;28;20207;-65
2023/10/01 01:42:51;;;;;;;12.35;5.50;;;14.80;99.90;;;;;;5054839;28;20200;-65
2023/10/01 01:45:20;;;;;;;7.47;5.47;;;14.80;99.90;;;;;;5055314;28;20197;-65
2023/10/01 01:47:47;;;;;;;11.98;5.72;;;14.80;99.90;;;;;;5045709;28;20204;-65
2023/10/01 01:50:19;;;;;;;8.13;5.28;;;14.80;99.90;;;;;;5023767;28;20321;-65
2023/10/01 01:52:49;;;;;;;11.35;5.60;;;14.70;99.90;;;;;;5052033;28;20277;-65
2023/10/01 01:55:26;;;;;;;10.90;5.70;;;14.80;99.90;;;;;;5050614;28;20204;-65
2023/10/01 01:58:06;;;;;;;11.07;6.32;;;14.80;99.90;;;;;;5062076;28;20206;-65
2023/10/01 02:00:35;;;;;;;10.32;5.00;;;14.70;99.90;;;;;;5054382;28;20277;-66
2023/10/01 02:03:10;;;;;;;8.48;5.70;;;14.70;99.90;;;;;;5049106;28;20251;-65
2023/10/01 02:05:38;;;;;;;10.75;5.60;;;14.70;99.90;;;;;;5023475;28;21242;-65
2023/10/01 02:08:09;;;;;;;10.38;6.03;;;14.80;99.90;;;;;;5063646;28;20220;-65
2023/10/01 02:10:44;;;;;;;10.65;6.30;;;14.80;99.90;;;;;;5035602;28;20200;-65
2023/10/01 02:13:13;;;;;;;14.60;6.30;;;14.70;99.90;;;;;;5061127;28;20517;-65
2023/10/01 02:15:40;;;;;;;11.63;6.68;;;14.70;99.90;;;;;;5059517;28;20211;-65
2023/10/01 02:18:09;;;;;;;14.95;6.50;;;14.70;99.90;;;;;;5045289;28;20232;-65
2023/10/01 02:20:36;;;;;;;11.00;6.78;;;14.60;99.90;;;;;;5055245;28;21065;-65
2023/10/01 02:23:03;;;;;;;9.38;6.07;;;14.70;99.90;;;;;;5022831;28;20218;-65
2023/10/01 02:25:38;;;;;;;14.07;6.05;;;14.70;99.90;;;;;;5055341;28;20200;-65
2023/10/01 02:28:11;;;;;;;10.10;6.30;;;14.60;99.90;;;;;;5057072;28;20231;-65
2023/10/01 02:30:39;;;;;;;11.68;6.00;;;15.20;99.90;;;;;;5065509;28;20200;-65
2023/10/01 02:33:18;;;;;;;8.10;5.18;;;;;;;;;;5057918;28;20224;-65
2023/10/01 02:35:55;;;;;;;13.48;5.93;;;14.70;99.90;;;;;;5046419;28;20312;-65
2023/10/01 02:38:40;;;;;;;10.30;5.80;;;14.60;99.90;;;;;;5039403;28;20199;-65
2023/10/01 02:41:08;;;;;;;9.15;6.57;;;14.80;99.90;;;;;;5047598;28;20197;-65
2023/10/01 02:43:35;;;;;;;11.63;6.40;;;14.70;99.90;;;;;;5059966;28;20200;-65
2023/10/01 02:46:04;;;;;;;11.77;6.03;;;14.70;99.90;;;;;;5059148;28;20200;-65
2023/10/01 02:48:31;;;;;;;11.93;6.13;;;14.70;99.90;;;;;;5054401;28;20381;-65
2023/10/01 02:51:14;;;;;;;12.02;6.55;;;14.70;99.90;;;;;;5052782;28;20211;-65
2023/10/01 02:53:51;;;;;;;10.63;6.00;;;13.50;99.90;;;;;;5024762;28;20256;-65
2023/10/01 02:56:32;;;;;;;13.52;6.63;;;14.70;99.90;;;;;;5049254;28;20207;-65
2023/10/01 02:59:07;;;;;;;14.00;6.85;;;14.70;99.90;;;;;;5061769;28;20214;-65
2023/10/01 03:01:34;;;;;;;12.00;7.05;;;14.70;99.90;;;;;;5063160;28;20272;-65
2023/10/01 03:04:05;;;;;;;10.98;6.30;;;14.70;99.90;;;;;;5059405;28;20824;-65
2023/10/01 03:06:33;;;;;;;10.95;7.03;;;14.70;99.90;;;;;;5050056;28;20212;-65
2023/10/01 03:09:04;;;;;;;16.58;8.43;;;14.70;99.90;;;;;;5019441;28;20232;-66
2023/10/01 03:11:41;;;;;;;12.73;6.80;;;14.70;99.90;;;;;;5053972;28;20272;-65
2023/10/01 03:14:09;;;;;;;14.60;7.07;;;14.60;99.90;;;;;;5057379;28;20234;-65
2023/10/01 03:16:45;;;;;;;10.40;7.53;;;14.60;99.90;;;;;;5053564;28;20212;-65
2023/10/01 03:19:18;;;;;;;14.48;6.97;;;14.60;99.90;;;;;;5058186;28;20202;-65
2023/10/01 03:24:30;;;;;;;9.70;6.35;;;14.60;99.90;;;;;;5023829;28;20219;-65
2023/10/01 03:27:12;;;;;;;10.57;7.07;;;14.60;99.90;;;;;;5056857;28;20313;-65
2023/10/01 03:29:42;;;;;;;10.98;6.93;;;14.50;99.90;;;;;;5060675;28;20197;-65
2023/10/01 03:34:53;;;;;;;13.57;7.28;;;14.50;99.90;;;;;;5058969;28;20231;-65
2023/10/01 03:37:22;;;;;;;14.20;7.45;;;12.30;99.90;;;;;;5051552;28;20203;-65
2023/10/01 03:39:52;;;;;;;10.18;6.97;;;14.40;99.90;;;;;;5019585;28;20920;-65
2023/10/01 03:42:20;;;;;;;13.35;6.63;;;14.40;99.90;;;;;;5048155;28;20372;-65
2023/10/01 03:45:38;;;;;;;10.15;6.05;;;14.20;99.90;;;;;;5059014;28;20300;-65
2023/10/01 03:47:51;;;;;;;12.88;6.90;;;14.40;99.90;;;;;;5052192;28;20205;-64
2023/10/01 03:50:20;;;;;;;13.73;6.80;;;14.30;99.90;;;;;;5062407;28;20513;-65
2023/10/01 03:52:52;;;;;;;12.35;6.50;;;14.30;99.90;;;;;;5050910;28;20274;-65
2023/10/01 03:55:27;;;;;;;12.07;7.22;;;14.20;99.90;;;;;;5022420;28;20219;-65
2023/10/01 03:58:05;;;;;;;14.38;7.43;;;14.30;99.90;;;;;;5055570;28;20199;-65
2023/10/01 04:00:34;;;;;;;12.98;6.65;;;14.20;99.90;;;;;;5053727;28;20196;-65
2023/10/01 04:03:02;;;;;;;13.82;7.55;;;14.40;99.90;;;;;;5044875;28;20219;-65
2023/10/01 04:05:33;;;;;;;11.60;7.32;;;14.20;99.90;;;;;;5051461;28;20202;-65
2023/10/01 04:08:06;;;;;;;10.27;7.20;;;12.70;99.90;;;;;;5053530;28;20255;-65
2023/10/01 04:10:35;;;;;;;12.32;7.53;;;14.20;99.90;;;;;;5023524;28;20226;-65
2023/10/01 04:13:12;;;;;;;9.32;6.78;;;14.20;99.90;;;;;;5059946;28;20224;-65
2023/10/01 04:15:43;;;;;;;17.33;7.57;;;14.10;99.90;;;;;;5043533;28;20205;-65
2023/10/01 04:18:19;;;;;;;13.40;8.15;;;14.10;99.90;;;;;;5060495;28;20200;-64
2023/10/01 04:20:49;;;;;;;11.82;7.30;;;14.10;99.90;;;;;;5057308;28;20199;-65
2023/10/01 04:23:25;;;;;;;13.73;7.47;;;14.10;99.90;;;;;;5060847;28;20555;-65
2023/10/01 04:25:51;;;;;;;11.57;7.43;;;14.00;99.90;;;;;;5023392;28;20246;-65
2023/10/01 04:28:20;;;;;;;10.32;7.50;;;13.70;99.90;;;;;;5061803;28;20665;-65
2023/10/01 04:30:51;;;;;;;13.07;7.35;;;14.00;99.90;;;;;;5053924;28;20216;-64
2023/10/01 04:33:19;;;;;;;14.80;7.28;;;13.70;99.90;;;;;;5053663;28;20231;-65
2023/10/01 04:35:55;;;;;;;11.45;7.78;;;13.80;99.90;;;;;;5057212;28;20662;-65
2023/10/01 04:38:26;;;;;;;11.38;7.07;;;13.90;99.90;;;;;;5058548;28;20668;-65
2023/10/01 04:40:54;;;;;;;9.88;7.10;;;13.90;99.90;;;;;;5056901;28;20228;-65
2023/10/01 04:43:26;;;;;;;13.70;6.97;;;13.80;99.90;;;;;;5019697;28;20685;-65
2023/10/01 04:45:53;;;;;;;15.02;7.45;;;13.90;99.90;;;;;;5053644;28;20898;-65
2023/10/01 04:48:23;;;;;;;11.50;7.28;;;13.80;99.90;;;;;;5047113;28;20207;-65
2023/10/01 04:50:53;;;;;;;13.73;7.75;;;13.90;99.90;;;;;;5061368;28;20193;-65
2023/10/01 04:53:21;;;;;;;15.30;8.60;;;13.80;99.90;;;;;;5062558;28;20205;-65
2023/10/01 04:56:00;;;;;;;14.48;7.20;;;13.90;99.90;;;;;;5050516;28;20205;-65
2023/10/01 04:58:32;;;;;;;14.15;7.53;;;13.80;99.90;;;;;;5023125;28;20203;-65
2023/10/01 05:01:01;;;;;;;12.48;8.10;;;13.80;99.90;;;;;;5045085;28;20324;-65
2023/10/01 05:03:38;;;;;;;12.88;7.50;;;;;;;;;;5038353;28;20224;-65
2023/10/01 05:06:08;;;;;;;16.90;7.95;;;13.80;99.90;;;;;;5059069;28;20196;-65
2023/10/01 05:08:39;;;;;;;16.45;8.48;;;14.60;99.90;;;;;;5050333;28;20307;-65
2023/10/01 05:11:10;;;;;;;13.75;8.48;;;13.90;99.90;;;;;;5051897;28;20196;-65
2023/10/01 05:13:40;;;;;;;13.55;8.40;;;13.90;99.90;;;;;;5020933;28;20240;-65
2023/10/01 05:16:07;;;;;;;15.85;8.77;;;13.90;99.90;;;;;;5053086;28;20200;-65
2023/10/01 05:18:34;;;;;;;11.88;8.93;;;13.90;99.90;;;;;;5048702;28;20203;-65
2023/10/01 05:21:04;;;;;;;13.15;8.35;;;14.00;99.90;;;;;;5066012;28;20209;-65
2023/10/01 05:23:31;;;;;;;14.68;8.73;;;14.00;99.90;;;;;;5049955;28;20314;-65
2023/10/01 05:25:59;;;;;;;13.63;8.98;;;14.00;99.90;;;;;;5061102;28;21009;-65
2023/10/01 05:28:34;;;;;;;14.80;8.75;;;14.00;99.90;;;;;;5022387;28;20346;-65
2023/10/01 05:31:05;;;;;;;15.60;9.18;;;14.00;99.90;;;;;;5039541;28;20223;-65
2023/10/01 05:33:33;;;;;;;13.02;9.13;;;14.00;99.90;;;;;;5045617;28;20204;-65
2023/10/01 05:36:03;;;;;;;14.45;9.27;;;14.10;99.90;;;;;;5056074;28;20200;-65
2023/10/01 05:38:33;;;;;;;15.00;9.23;;;14.10;99.90;;;;;;5048726;28;20226;-65
2023/10/01 05:41:03;;;;;;;13.82;9.23;;;14.60;99.90;;;;;;5051440;28;20575;-65
2023/10/01 05:43:35;;;;;;;14.95;9.55;;;14.00;99.90;;;;;;5047951;28;20753;-65
2023/10/01 05:46:08;;;;;;;12.98;8.75;;;14.10;99.90;;;;;;5011276;28;20308;-65
2023/10/01 05:48:37;;;;;;;15.25;9.05;;;14.90;99.90;;;;;;5047500;28;21533;-65
2023/10/01 05:51:06;;;;;;;12.55;9.35;;;14.10;99.90;;;;;;5058830;28;20196;-65
2023/10/01 05:53:33;;;;;;;15.68;9.55;;;14.10;99.90;;;;;;5059451;28;20685;-65
2023/10/01 05:56:06;;;;;;;14.57;10.00;;;14.10;99.90;;;;;;5062406;28;20283;-65
2023/10/01 05:58:33;;;;;;;15.82;9.10;;;14.10;99.90;;;;;;5048088;28;20208;-65
2023/10/01 06:01:05;;;;;;;18.80;10.05;;;14.10;99.90;;;;;;5018904;28;20702;-65
2023/10/01 06:03:34;;;;;;;14.48;9.52;;;14.20;99.90;;;;;;5024195;28;20207;-65
2023/10/01 06:06:08;;;;;;;16.67;10.02;;;14.10;99.90;;;;;;5049959;28;20228;-65
2023/10/01 06:08:46;;;;;;;16.52;9.77;;;14.10;99.90;;;;;;5057195;28;20286;-65
2023/10/01 06:11:15;;;;;;;15.00;10.35;;;14.20;99.90;;;;;;5045668;28;20203;-64
2023/10/01 06:13:49;;;;;;;13.15;9.05;;;14.20;99.90;;;;;;5047378;28;20242;-65
2023/10/01 06:16:22;;;;;;;15.88;9.75;;;14.60;99.90;;;;;;5016794;28;20204;-65
2023/10/01 06:18:52;;;;;;;13.85;9.20;;;14.30;99.90;;;;;;5045429;28;20834;-65
2023/10/01 06:21:19;;;;;;;15.65;10.00;;;14.30;99.90;;;;;;5049554;28;20211;-65
2023/10/01 06:23:52;;;;;;;12.27;9.25;;;14.40;99.90;;;;;;5062168;28;20200;-65
2023/10/01 06:26:20;;;;;;;18.70;9.63;;;14.30;99.90;;;;;;5054537;28;20207;-65
2023/10/01 06:28:48;;;;;;;13.80;9.20;;;14.40;99.90;;;;;;5052989;28;20204;-65
2023/10/01 06:31:17;;;;;;;13.25;8.98;;;14.40;99.90;;;;;;5015381;28;20238;-65
2023/10/01 06:33:45;;;;;;;14.00;8.63;;;14.50;99.90;;;;;;5041940;28;20204;-65
2023/10/01 06:36:19;;;;;;;16.70;8.68;;;14.50;99.90;;;;;;5049267;28;20211;-64
2023/10/01 06:38:48;;;;;;;13.02;9.07;;;14.40;99.90;;;;;;5057701;28;20204;-65
2023/10/01 06:41:16;;;;;;;13.68;8.45;;;14.60;99.90;;;;;;5064505;28;20744;-65
2023/10/01 06:43:54;;;;;;;12.52;8.57;;;14.50;99.90;;;;;;5049970;28;20303;-65
2023/10/01 06:46:22;;;;;;;14.23;8.90;;;14.60;99.90;;;;;;5030237;28;20204;-65
2023/10/01 06:48:50;;;;;;;15.30;9.20;;;14.70;99.90;;;;;;5037921;28;20404;-65
2023/10/01 06:51:21;;;;;;;12.82;9.07;;;14.60;99.90;;;;;;5047535;28;20788;-65
2023/10/01 06:53:53;;;;;;;13.52;8.77;;;14.70;99.90;;;;;;5055907;28;21006;-65
2023/10/01 06:56:21;;;;;;;14.13;8.43;;;;;;;;;;5051192;28;20298;-65
2023/10/01 07:01:42;;;;;;;11.77;8.45;;;14.80;99.90;;;;;;5032018;28;20995;-65
2023/10/01 07:04:09;;;;;;;14.20;8.98;;;14.50;99.90;;;;;;5006030;28;20799;-65
2023/10/01 07:06:38;;;;;;;13.73;8.52;;;14.80;99.90;;;;;;5053684;28;20215;-65
2023/10/01 07:09:24;;;;;;;14.57;8.05;;;14.70;99.90;;;;;;5031348;28;20224;-65
2023/10/01 07:11:51;;;;;;;13.13;7.82;;;14.80;99.90;;;;;;5056688;28;20628;-65
2023/10/01 07:14:29;;;;;;;13.43;8.38;;;14.80;99.90;;;;;;5034293;28;21198;-65
2023/10/01 07:16:57;;;;;;;15.20;8.80;;;15.30;99.90;;;;;;5048185;28;20214;-65
2023/10/01 07:19:24;;;;;;;13.00;7.97;;;14.80;99.90;;;;;;5003644;28;20223;-65
2023/10/01 07:21:56;;;;;;;14.98;8.43;;;14.80;99.90;;;;;;5046051;28;20215;-65
2023/10/01 07:24:24;;;;;;;14.60;8.57;;;14.90;99.90;;;;;;5038487;28;20208;-65
2023/10/01 07:26:51;;;;;;;12.48;8.35;;;14.90;99.90;;;;;;5051739;28;20222;-65
2023/10/01 07:29:19;;;;;;;12.50;8.32;;;14.90;99.90;;;;;;5046763;28;20211;-65
2023/10/01 07:31:46;;;;;;;10.52;7.78;;;15.00;99.90;;;;;;5039871;28;20818;-65
2023/10/01 07:34:13;;;;;;;10.98;8.10;;;15.00;99.90;;;;;;5014997;28;20219;-65
2023/10/01 07:36:42;;;;;;;13.45;7.88;;;15.00;99.90;;;;;;5033480;28;20227;-65
2023/10/01 07:39:13;;;;;;;14.10;9.02;;;15.00;99.90;;;;;;5025358;28;20231;-65
2023/10/01 07:41:44;;;;;;;9.85;7.88;;;15.00;99.90;;;;;;5058541;28;21147;-65
2023/10/01 07:44:12;;;;;;;16.00;9.55;;;13.60;99.90;;;;;;5037950;28;20351;-65
2023/10/01 07:46:38;;;;;;;17.73;9.50;;;15.00;99.90;;;;;;5045214;28;20224;-66
2023/10/01 07:49:08;;;;;;;13.48;9.25;;;;;;;;;;5007512;28;20218;-66
2023/10/01 07:51:38;;;;;;;21.90;9.50;;;14.90;99.90;;;;;;5041240;28;20212;-66
2023/10/01 07:54:10;;;;;;;13.13;8.95;;;14.90;99.90;;;;;;5028956;28;20235;-66
2023/10/01 07:56:48;;;;;;;15.05;10.10;;;14.80;99.90;;;;;;5055314;28;20211;-66
2023/10/01 07:59:28;;;;;;;16.20;9.90;;;14.90;99.90;;;;;;5038407;28;20195;-66
2023/10/01 08:02:09;;;;;;;15.00;9.77;;;;;;;;;;5022060;28;20232;-66
2023/10/01 08:07:22;;;;;;;14.60;9.38;;;15.00;99.90;;;;;;5040479;28;20235;-66
2023/10/01 08:09:52;;;;;;;16.77;8.45;;;15.00;99.90;;;;;;5030421;28;20211;-66
2023/10/01 08:12:22;;;;;;;15.10;8.95;;;15.00;99.90;;;;;;5047241;28;20424;-65
2023/10/01 08:15:15;;;;;;;15.27;8.80;;;15.00;99.90;;;;;;5033633;28;20231;-66
2023/10/01 08:17:36;;;;;;;15.18;9.48;;;15.00;99.90;;;;;;5046722;28;20269;-65
2023/10/01 08:20:15;;;;;;;17.33;10.98;;;15.10;99.90;;;;;;5013543;28;21011;-65
2023/10/01 08:22:43;;;;;;;13.63;9.15;;;15.00;99.90;;;;;;5040927;28;20227;-65
2023/10/01 08:25:12;;;;;;;13.32;9.73;;;15.10;99.90;;;;;;5015336;28;20220;-65
2023/10/01 08:28:26;;;;;;;19.13;11.25;;;15.10;99.90;;;;;;5036426;28;20237;-66
2023/10/01 08:30:38;;;;;;;17.70;10.20;;;15.10;99.90;;;;;;5035870;28;20602;-66
2023/10/01 08:33:18;;;;;;;17.70;8.63;;;15.00;99.90;;;;;;5044507;28;20204;-66
2023/10/01 08:35:56;;;;;;;16.20;9.57;;;15.10;99.90;;;;;;5008325;28;20246;-65
2023/10/01 08:38:26;;;;;;;16.70;9.38;;;15.10;99.90;;;;;;5047733;28;20223;-65
2023/10/01 08:40:59;;;;;;;14.65;9.43;;;14.90;99.90;;;;;;5020091;28;20231;-66
2023/10/01 08:43:34;;;;;;;15.80;8.93;;;15.10;99.90;;;;;;5037367;28;20220;-66
2023/10/01 08:46:13;;;;;;;16.05;9.13;;;15.00;99.90;;;;;;5011031;28;20215;-66
2023/10/01 08:48:43;;;;;;;15.00;8.63;;;11.10;99.90;;;;;;5010244;28;20295;-66
2023/10/01 08:51:12;;;;;;;16.52;8.60;;;15.10;99.90;;;;;;5010276;28;20248;-67
2023/10/01 08:53:41;;;;;;;13.52;8.35;;;15.00;99.90;;;;;;5017279;28;22093;-66
2023/10/01 08:56:13;;;;;;;13.30;8.65;;;14.90;99.90;;;;;;5023031;28;20227;-67
2023/10/01 08:58:49;;;;;;;13.75;8.57;;;15.10;99.90;;;;;;5035703;28;20417;-67
2023/10/01 09:01:20;;;;;;;11.73;7.45;;;15.10;99.90;;;;;;5032227;28;20223;-66
2023/10/01 09:03:55;;;;;;;15.00;7.28;;;15.10;99.90;;;;;;5032481;28;23333;-67
2023/10/01 09:06:25;;;;;;;18.33;8.18;;;15.20;99.90;;;;;;5004086;28;20223;-66
2023/10/01 09:08:55;;;;;;;15.27;7.63;;;14.80;99.90;;;;;;5035128;28;20236;-66
2023/10/01 09:11:35;;;;;;;12.50;7.35;;;15.80;99.90;;;;;;5028085;28;20556;-67
2023/10/01 09:14:19;;;;;;;14.27;8.00;;;15.20;99.90;;;;;;5054412;28;20317;-66
2023/10/01 09:16:49;;;;;;;10.02;7.10;;;15.00;99.90;;;;;;5037112;28;20592;-67
2023/10/01 09:19:34;;;;;;;13.77;7.45;;;15.30;99.90;;;;;;5037556;28;20208;-66
2023/10/01 09:22:15;;;;;;;12.35;7.78;;;15.60;99.90;;;;;;5016708;28;20212;-67
2023/10/01 09:24:55;;;;;;;11.73;7.15;;;15.30;99.90;;;;;;5024422;28;20235;-67
2023/10/01 09:27:27;;;;;;;15.15;7.93;;;15.30;99.90;;;;;;5034721;28;20227;-67
2023/10/01 09:32:51;;;;;;;16.13;7.90;;;15.40;99.90;;;;;;5036822;28;20223;-66
2023/10/01 09:35:30;;;;;;;13.98;6.97;;;;;;;;;;5013157;28;20322;-66
2023/10/01 09:38:10;;;;;;;12.18;7.45;;;15.50;99.90;;;;;;5036670;28;20403;-66
2023/10/01 09:40:38;;;;;;;15.00;7.32;;;15.50;99.90;;;;;;5040877;28;20199;-66
2023/10/01 09:43:17;;;;;;;11.90;7.85;;;15.30;99.90;;;;;;5039687;28;20220;-66
2023/10/01 09:45:47;;;;;;;12.40;7.22;;;15.40;99.90;;;;;;5038782;28;20656;-66
2023/10/01 09:48:29;;;;;;;13.13;7.22;;;15.50;99.90;;;;;;5043577;28;20204;-66
2023/10/01 09:51:03;;;;;;;13.43;6.88;;;15.60;99.90;;;;;;5002017;28;21051;-66
2023/10/01 09:53:43;;;;;;;16.20;7.97;;;15.60;99.90;;;;;;5054367;28;20224;-67
2023/10/01 09:56:13;;;;;;;13.55;7.30;;;15.50;99.90;;;;;;5026905;28;21243;-66
2023/10/01 09:58:46;;;;;;;11.82;7.15;;;15.60;99.90;;;;;;5036676;28;20223;-66
2023/10/01 10:01:17;;;;;;;15.35;7.68;;;15.60;99.90;;;;;;5037995;28;20689;-66
2023/10/01 10:03:45;;;;;;;13.20;7.07;;;15.10;99.90;;;;;;5017428;28;20309;-66
2023/10/01 10:06:12;;;;;;;17.17;8.35;;;15.60;99.90;;;;;;4986684;28;20223;-66
2023/10/01 10:08:40;;;;;;;15.80;7.53;;;15.70;99.90;;;;;;5057730;28;20261;-66
2023/10/01 10:11:13;;;;;;;17.90;8.40;;;16.00;99.90;;;;;;5054798;28;21025;-66
2023/10/01 10:13:46;;;;;;;13.95;7.53;;;15.70;99.90;;;;;;5050320;28;20258;-66
2023/10/01 10:16:30;;;;;;;13.77;7.97;;;15.70;99.90;;;;;;5051917;28;20232;-66
2023/10/01 10:19:12;;;;;;;12.88;7.43;;;15.70;99.90;;;;;;5049383;28;20215;-66
2023/10/01 10:22:16;;;;;;;13.52;7.65;;;15.80;99.90;;;;;;5030712;28;20212;-67
2023/10/01 10:24:47;;;;;;;16.42;8.38;;;15.80;99.90;;;;;;5060929;28;20572;-66
2023/10/01 10:27:47;;;;;;;18.08;8.38;;;15.80;99.90;;;;;;5063767;28;20829;-66
2023/10/01 10:30:21;;;;;;;17.92;8.57;;;15.80;99.90;;;;;;5058653;28;20204;-66
2023/10/01 10:33:39;;;;;;;12.98;7.68;;;15.90;99.90;;;;;;5051512;28;20196;-66
2023/10/01 10:36:51;;;;;;;16.42;8.55;;;16.90;99.90;;;;;;5054989;28;20270;-66
2023/10/01 10:40:26;;;;;;;17.42;8.95;;;15.90;99.90;;;;;;5025712;28;20230;-66
2023/10/01 10:43:18;;;;;;;21.17;8.48;;;15.90;99.90;;;;;;5058923;28;20207;-66
2023/10/01 10:46:01;;;;;;;13.07;7.57;;;15.90;99.90;;;;;;5048463;28;20219;-67
2023/10/01 10:48:59;;;;;;;16.33;7.88;;;16.00;99.90;;;;;;5053818;28;20195;-65
2023/10/01 10:51:47;;;;;;;13.82;7.63;;;16.00;99.90;;;;;;5057887;28;20286;-66
2023/10/01 10:54:27;;;;;;;18.40;8.52;;;16.00;99.90;;;;;;5011613;28;20975;-66
2023/10/01 10:56:53;;;;;;;15.45;7.75;;;15.90;99.90;;;;;;5057214;28;20235;-66
2023/10/01 10:59:25;;;;;;;14.63;8.10;;;15.90;99.90;;;;;;5063615;28;20193;-66
2023/10/01 11:01:56;;;;;;;18.88;8.63;;;15.90;99.90;;;;;;5042743;28;20670;-66
2023/10/01 11:04:30;;;;;;;17.02;8.95;;;16.00;99.90;;;;;;5053725;28;20665;-66
2023/10/01 11:07:04;;;;;;;16.17;9.00;;;16.00;99.90;;;;;;5046640;28;20223;-66
2023/10/01 11:09:33;;;;;;;13.23;7.93;;;15.90;99.90;;;;;;5026811;28;20204;-66
2023/10/01 11:12:05;;;;;;;21.08;8.15;;;16.00;99.90;;;;;;5062926;28;20192;-66
2023/10/01 11:14:34;;;;;;;16.13;9.15;;;15.90;99.90;;;;;;5062018;28;20252;-66
2023/10/01 11:17:01;;;;;;;19.10;8.68;;;16.00;99.90;;;;;;5054200;28;21103;-66
2023/10/01 11:19:35;;;;;;;20.95;8.38;;;15.90;99.90;;;;;;5051531;28;20234;-66
2023/10/01 11:22:04;;;;;;;21.10;8.52;;;16.00;99.90;;;;;;5056901;28;20596;-66
2023/10/01 11:24:32;;;;;;;13.13;7.43;;;16.00;99.90;;;;;;5027903;28;20605;-66
2023/10/01 11:27:20;;;;;;;14.98;7.47;;;16.00;99.90;;;;;;5061440;28;20204;-66
2023/10/01 11:30:16;;;;;;;14.10;7.88;;;16.00;99.90;;;;;;5057819;28;20958;-66
2023/10/01 11:33:01;;;;;;;11.85;7.75;;;16.00;99.90;;;;;;5046336;28;21175;-66
2023/10/01 11:35:32;;;;;;;17.80;9.80;;;16.10;99.90;;;;;;5047352;28;20205;-66
2023/10/01 11:38:08;;;;;;;14.77;8.60;;;16.10;99.90;;;;;;5056433;28;20403;-66
2023/10/01 11:43:32;;;;;;;14.10;7.78;;;16.10;99.90;;;;;;5060136;28;20227;-66
2023/10/01 11:46:29;;;;;;;14.30;8.18;;;16.10;99.90;;;;;;5058305;28;20530;-66
2023/10/01 11:48:57;;;;;;;16.70;8.05;;;16.20;99.90;;;;;;5034251;28;20250;-66
2023/10/01 11:51:41;;;;;;;11.23;7.43;;;16.20;99.90;;;;;;5059633;28;20208;-66
2023/10/01 11:54:11;;;;;;;13.27;7.63;;;16.20;99.90;;;;;;5056965;28;20211;-67
2023/10/01 11:56:41;;;;;;;13.55;7.18;;;16.30;99.90;;;;;;5024703;28;20239;-66
2023/10/01 11:59:10;;;;;;;14.68;8.73;;;16.30;99.90;;;;;;5064485;28;20286;-66
2023/10/01 12:01:47;;;;;;;14.85;8.18;;;16.40;99.90;;;;;;5061582;28;20196;-66
2023/10/01 12:07:15;;;;;;;13.13;7.85;;;16.40;99.90;;;;;;5052968;28;20232;-66
2023/10/01 12:09:43;;;;;;;15.68;8.00;;;16.50;99.90;;;;;;5058252;28;20491;-66
2023/10/01 12:12:09;;;;;;;13.73;7.65;;;16.50;99.90;;;;;;5028297;28;20216;-66
2023/10/01 12:14:52;;;;;;;19.20;9.40;;;16.60;99.90;;;;;;5059326;28;20224;-66
2023/10/01 12:17:23;;;;;;;14.80;8.43;;;16.70;99.90;;;;;;5060570;28;20228;-66
2023/10/01 12:19:54;;;;;;;20.10;8.68;;;16.70;99.90;;;;;;5049522;28;24582;-66
2023/10/01 12:22:23;;;;;;;13.52;8.45;;;16.80;99.90;;;;;;5056917;28;20211;-66
2023/10/01 12:24:56;;;;;;;12.15;7.65;;;16.80;99.90;;;;;;5056555;28;20270;-66
2023/10/01 12:27:41;;;;;;;12.30;7.60;;;16.80;99.90;;;;;;5042747;28;20921;-66
2023/10/01 12:30:27;;;;;;;16.77;8.40;;;16.90;99.90;;;;;;5062690;28;22254;-66
2023/10/01 12:32:56;;;;;;;14.63;8.07;;;16.90;99.90;;;;;;5062188;28;20218;-66
2023/10/01 12:35:29;;;;;;;11.70;7.35;;;16.90;99.90;;;;;;5049454;28;21148;-66
2023/10/01 12:38:23;;;;;;;19.38;8.13;;;17.00;99.90;;;;;;5055194;28;21026;-66
2023/10/01 12:40:53;;;;;;;18.15;7.75;;;17.00;99.90;;;;;;5056447;28;20216;-66
2023/10/01 12:43:37;;;;;;;14.23;7.90;;;17.00;99.90;;;;;;5025826;28;20216;-66
2023/10/01 12:46:12;;;;;;;14.23;7.93;;;17.10;99.90;;;;;;5062502;28;20204;-66
2023/10/01 12:49:14;;;;;;;14.55;7.38;;;17.00;99.90;;;;;;5061645;28;20192;-66
2023/10/01 12:51:41;;;;;;;15.40;7.32;;;17.00;99.90;;;;;;5049772;28;20215;-66
2023/10/01 12:54:07;;;;;;;16.85;7.82;;;17.20;99.90;;;;;;5052237;28;20414;-66
2023/10/01 12:56:48;;;;;;;12.65;7.07;;;17.10;99.90;;;;;;5058308;28;20826;-66
2023/10/01 12:59:19;;;;;;;11.82;7.45;;;17.20;99.90;;;;;;5024392;28;20208;-66
2023/10/01 13:01:50;;;;;;;18.75;7.53;;;17.30;99.90;;;;;;5063071;28;20281;-66
2023/10/01 13:04:22;;;;;;;15.38;7.70;;;17.20;99.90;;;;;;5063884;28;21042;-66
2023/10/01 13:06:49;;;;;;;13.23;7.47;;;17.30;99.90;;;;;;5042374;28;20254;-66
2023/10/01 13:12:13;;;;;;;10.45;6.50;;;17.30;99.90;;;;;;5059918;28;20235;-66
2023/10/01 13:14:40;;;;;;;18.17;6.57;;;17.40;99.90;;;;;;5010408;28;20266;-66
2023/10/01 13:17:19;;;;;;;16.83;7.88;;;17.10;99.90;;;;;;5063396;28;20239;-66
2023/10/01 13:19:48;;;;;;;13.77;7.00;;;17.60;99.90;;;;;;5058268;28;20288;-66
2023/10/01 13:22:18;;;;;;;15.27;7.57;;;17.50;99.90;;;;;;5053530;28;20196;-66
2023/10/01 13:24:53;;;;;;;17.05;6.57;;;17.60;99.90;;;;;;5050699;28;20200;-66
2023/10/01 13:27:21;;;;;;;16.98;6.50;;;17.60;99.90;;;;;;5061801;28;20366;-66
2023/10/01 13:29:49;;;;;;;12.90;6.72;;;17.60;99.90;;;;;;5022891;28;20219;-66
2023/10/01 13:32:15;;;;;;;15.82;7.32;;;17.60;99.90;;;;;;5061176;28;20200;-66